createdAt,value
2022-11-24T00:01:15.833Z,15.93
2022-11-24T00:03:43.986Z,15.90
2022-11-24T00:06:14.355Z,15.94
2022-11-24T00:08:42.902Z,15.93
2022-11-24T00:11:14.836Z,15.93
2022-11-24T00:13:42.087Z,15.91
2022-11-24T00:16:13.068Z,15.92
2022-11-24T00:18:41.029Z,15.92
2022-11-24T00:21:07.651Z,15.92
2022-11-24T00:23:35.491Z,15.93
2022-11-24T00:26:13.659Z,15.91
2022-11-24T00:28:41.234Z,15.92
2022-11-24T00:31:35.329Z,15.90
2022-11-24T00:34:11.834Z,15.89
2022-11-24T00:36:39.317Z,15.89
2022-11-24T00:39:14.619Z,15.88
2022-11-24T00:41:42.462Z,15.87
2022-11-24T00:44:09.046Z,15.87
2022-11-24T00:46:35.726Z,15.86
2022-11-24T00:49:02.408Z,15.87
2022-11-24T00:51:32.360Z,15.86
2022-11-24T00:54:00.920Z,15.82
2022-11-24T00:56:29.221Z,15.82
2022-11-24T00:58:56.510Z,15.85
2022-11-24T01:01:26.073Z,15.85
2022-11-24T01:03:54.669Z,15.80
2022-11-24T01:06:24.341Z,15.84
2022-11-24T01:08:51.960Z,15.83
2022-11-24T01:11:23.619Z,15.84
2022-11-24T01:13:53.740Z,15.80
2022-11-24T01:16:21.991Z,15.83
2022-11-24T01:18:49.357Z,15.78
2022-11-24T01:21:17.641Z,15.81
2022-11-24T01:23:45.163Z,15.83
2022-11-24T01:26:15.086Z,15.82
2022-11-24T01:28:47.105Z,15.82
2022-11-24T01:31:16.202Z,15.81
2022-11-24T01:33:43.486Z,15.81
2022-11-24T01:36:10.082Z,15.82
2022-11-24T01:38:36.595Z,15.80
2022-11-24T01:41:04.952Z,15.82
2022-11-24T01:43:31.834Z,15.81
2022-11-24T01:46:03.848Z,15.80
2022-11-24T01:48:40.068Z,15.80
2022-11-24T01:51:28.662Z,15.77
2022-11-24T01:54:04.592Z,15.74
2022-11-24T01:56:33.646Z,15.78
2022-11-24T01:59:02.832Z,15.79
2022-11-24T02:01:31.499Z,15.79
2022-11-24T02:04:00.429Z,15.76
2022-11-24T02:06:29.952Z,15.78
2022-11-24T02:09:13.450Z,15.77
2022-11-24T02:11:41.453Z,15.76
2022-11-24T02:14:11.564Z,15.77
2022-11-24T02:16:40.848Z,15.77
2022-11-24T02:19:23.160Z,15.77
2022-11-24T02:21:50.132Z,15.76
2022-11-24T02:24:28.563Z,15.74
2022-11-24T02:26:55.068Z,15.74
2022-11-24T02:29:21.753Z,15.74
2022-11-24T02:31:53.288Z,15.74
2022-11-24T02:34:20.983Z,15.73
2022-11-24T02:36:48.084Z,15.63
2022-11-24T02:39:16.031Z,15.73
2022-11-24T02:41:44.921Z,15.72
2022-11-24T02:44:14.421Z,15.72
2022-11-24T02:46:41.624Z,15.68
2022-11-24T02:49:08.653Z,15.70
2022-11-24T02:51:35.725Z,15.68
2022-11-24T02:54:02.752Z,15.69
2022-11-24T02:56:29.750Z,15.67
2022-11-24T02:58:56.784Z,15.67
2022-11-24T03:01:24.033Z,15.66
2022-11-24T03:03:50.634Z,15.66
2022-11-24T03:06:17.569Z,15.64
2022-11-24T03:08:44.525Z,15.64
2022-11-24T03:11:11.057Z,15.66
2022-11-24T03:13:38.042Z,15.61
2022-11-24T03:16:09.094Z,15.62
2022-11-24T03:18:35.622Z,15.62
2022-11-24T03:21:02.589Z,15.62
2022-11-24T03:23:29.638Z,15.65
2022-11-24T03:26:07.033Z,15.64
2022-11-24T03:28:33.544Z,15.64
2022-11-24T03:31:00.583Z,15.65
2022-11-24T03:33:27.137Z,15.63
2022-11-24T03:35:53.659Z,15.61
2022-11-24T03:38:21.141Z,15.65
2022-11-24T03:40:48.173Z,15.65
2022-11-24T03:43:14.697Z,15.64
2022-11-24T03:45:48.326Z,15.65
2022-11-24T03:48:18.727Z,15.64
2022-11-24T03:50:56.468Z,15.63
2022-11-24T03:53:24.763Z,15.63
2022-11-24T03:55:51.779Z,15.61
2022-11-24T03:58:19.400Z,15.61
2022-11-24T04:00:48.716Z,15.61
2022-11-24T04:03:15.296Z,15.61
2022-11-24T04:05:42.048Z,15.60
2022-11-24T04:08:09.709Z,15.56
2022-11-24T04:10:38.171Z,15.59
2022-11-24T04:13:10.787Z,15.56
2022-11-24T04:15:40.172Z,15.58
2022-11-24T04:18:08.286Z,15.57
2022-11-24T04:20:35.563Z,15.57
2022-11-24T04:23:02.493Z,15.55
2022-11-24T04:25:29.771Z,15.59
2022-11-24T04:27:57.785Z,15.58
2022-11-24T04:30:26.282Z,15.58
2022-11-24T04:32:53.110Z,15.54
2022-11-24T04:35:20.318Z,15.58
2022-11-24T04:37:47.400Z,15.57
2022-11-24T04:40:15.119Z,15.56
2022-11-24T04:42:42.424Z,15.57
2022-11-24T04:45:09.622Z,15.57
2022-11-24T04:47:36.657Z,15.58
2022-11-24T04:50:04.642Z,15.57
2022-11-24T04:52:31.271Z,15.57
2022-11-24T04:54:58.236Z,15.56
2022-11-24T04:57:26.838Z,15.56
2022-11-24T04:59:54.357Z,15.49
2022-11-24T05:02:22.840Z,15.54
2022-11-24T05:04:50.401Z,15.57
2022-11-24T05:07:19.561Z,15.47
2022-11-24T05:10:06.162Z,15.47
2022-11-24T05:12:33.381Z,15.55
2022-11-24T05:15:04.703Z,15.55
2022-11-24T05:17:33.671Z,15.55
2022-11-24T05:20:00.329Z,15.55
2022-11-24T05:22:29.926Z,15.52
2022-11-24T05:24:56.497Z,15.54
2022-11-24T05:27:24.003Z,15.52
2022-11-24T05:29:50.685Z,15.54
2022-11-24T05:32:20.741Z,15.55
2022-11-24T05:34:47.940Z,15.53
2022-11-24T05:37:14.532Z,15.55
2022-11-24T05:39:41.057Z,15.53
2022-11-24T05:42:26.534Z,15.42
2022-11-24T05:44:53.319Z,15.52
2022-11-24T05:47:20.873Z,15.49
2022-11-24T05:49:47.893Z,15.50
2022-11-24T05:52:15.463Z,15.48
2022-11-24T05:54:42.558Z,15.49
2022-11-24T05:57:09.791Z,15.47
2022-11-24T05:59:36.621Z,15.49
2022-11-24T06:02:03.444Z,15.49
2022-11-24T06:04:30.516Z,15.45
2022-11-24T06:06:57.123Z,15.49
2022-11-24T06:09:23.731Z,15.49
2022-11-24T06:11:50.778Z,15.49
2022-11-24T06:14:17.740Z,15.42
2022-11-24T06:16:44.705Z,15.49
2022-11-24T06:19:11.566Z,15.47
2022-11-24T06:21:38.105Z,15.48
2022-11-24T06:24:05.603Z,15.49
2022-11-24T06:26:32.799Z,15.47
2022-11-24T06:28:59.528Z,15.50
2022-11-24T06:31:26.249Z,15.47
2022-11-24T06:33:53.226Z,15.50
2022-11-24T06:36:20.446Z,15.48
2022-11-24T06:38:47.034Z,15.49
2022-11-24T06:41:15.848Z,15.49
2022-11-24T06:43:42.738Z,15.49
2022-11-24T06:46:09.465Z,15.50
2022-11-24T06:48:36.917Z,15.49
2022-11-24T06:51:08.357Z,15.46
2022-11-24T06:53:38.047Z,15.47
2022-11-24T06:56:10.719Z,15.50
2022-11-24T06:58:44.319Z,15.51
2022-11-24T07:01:21.906Z,15.51
2022-11-24T07:03:49.301Z,15.53
2022-11-24T07:06:16.764Z,15.51
2022-11-24T07:08:43.583Z,15.55
2022-11-24T07:11:15.464Z,15.56
2022-11-24T07:13:43.674Z,15.53
2022-11-24T07:16:22.685Z,15.56
2022-11-24T07:18:51.315Z,15.58
2022-11-24T07:21:19.693Z,15.55
2022-11-24T07:23:53.274Z,15.56
2022-11-24T07:26:20.036Z,15.57
2022-11-24T07:28:46.806Z,15.57
2022-11-24T07:31:17.219Z,15.58
2022-11-24T07:33:43.886Z,15.60
2022-11-24T07:36:10.868Z,15.61
2022-11-24T07:38:37.438Z,15.61
2022-11-24T07:41:09.977Z,15.61
2022-11-24T07:43:37.556Z,15.63
2022-11-24T07:46:10.006Z,15.61
2022-11-24T07:48:36.717Z,15.61
2022-11-24T07:51:04.683Z,15.63
2022-11-24T07:53:32.386Z,15.61
2022-11-24T07:56:01.296Z,15.62
2022-11-24T07:58:32.593Z,15.63
2022-11-24T08:01:00.559Z,15.63
2022-11-24T08:03:27.446Z,15.64
2022-11-24T08:08:45.720Z,15.63
2022-11-24T08:11:17.555Z,15.67
2022-11-24T08:13:44.749Z,15.67
2022-11-24T08:16:17.490Z,15.68
2022-11-24T08:18:45.157Z,15.64
2022-11-24T08:21:13.776Z,15.68
2022-11-24T08:23:41.536Z,15.67
2022-11-24T08:26:13.729Z,15.71
2022-11-24T08:28:40.487Z,15.73
2022-11-24T08:31:14.113Z,15.74
2022-11-24T08:33:41.153Z,15.76
2022-11-24T08:36:10.525Z,15.83
2022-11-24T08:38:37.472Z,15.88
2022-11-24T08:41:09.878Z,15.92
2022-11-24T08:43:37.195Z,15.92
2022-11-24T08:46:09.301Z,15.99
2022-11-24T08:48:36.416Z,16.00
2022-11-24T08:51:08.500Z,16.06
2022-11-24T08:53:35.142Z,16.12
2022-11-24T08:56:02.853Z,16.14
2022-11-24T08:58:30.952Z,16.13
2022-11-24T09:01:15.118Z,16.19
2022-11-24T09:03:49.703Z,16.23
2022-11-24T09:06:23.438Z,16.26
2022-11-24T09:08:51.246Z,16.30
2022-11-24T09:11:18.712Z,16.30
2022-11-24T09:13:45.900Z,16.33
2022-11-24T09:16:15.556Z,16.37
2022-11-24T09:18:42.578Z,16.40
2022-11-24T09:21:12.184Z,16.42
2022-11-24T09:23:39.603Z,16.44
2022-11-24T09:26:13.089Z,16.47
2022-11-24T09:28:40.182Z,16.48
2022-11-24T09:31:09.425Z,16.50
2022-11-24T09:33:37.382Z,16.52
2022-11-24T09:36:05.178Z,16.53
2022-11-24T09:38:32.618Z,16.55
2022-11-24T09:41:17.793Z,16.59
2022-11-24T09:44:02.316Z,16.62
2022-11-24T09:46:41.321Z,16.63
2022-11-24T09:49:15.428Z,16.58
2022-11-24T09:51:46.333Z,16.59
2022-11-24T09:54:21.920Z,16.62
2022-11-24T09:56:51.238Z,16.64
2022-11-24T09:59:21.548Z,16.64
2022-11-24T10:01:49.961Z,16.66
2022-11-24T10:04:20.967Z,16.69
2022-11-24T10:06:55.881Z,16.70
2022-11-24T10:09:40.597Z,16.70
2022-11-24T10:12:23.616Z,16.71
2022-11-24T10:15:12.632Z,16.72
2022-11-24T10:17:57.774Z,16.73
2022-11-24T10:20:51.714Z,16.68
2022-11-24T10:23:31.889Z,16.74
2022-11-24T10:26:01.080Z,16.73
2022-11-24T10:28:39.033Z,16.69
2022-11-24T10:31:33.250Z,16.74
2022-11-24T10:34:22.472Z,16.77
2022-11-24T10:36:55.171Z,16.77
2022-11-24T10:39:35.940Z,16.80
2022-11-24T10:42:26.839Z,16.80
2022-11-24T10:45:00.425Z,16.80
2022-11-24T10:47:27.420Z,16.81
2022-11-24T10:50:33.034Z,16.81
2022-11-24T10:53:08.768Z,16.82
2022-11-24T10:55:54.153Z,16.81
2022-11-24T10:58:26.841Z,16.83
2022-11-24T11:00:58.790Z,16.78
2022-11-24T11:03:31.819Z,16.83
2022-11-24T11:06:13.047Z,16.85
2022-11-24T11:08:39.875Z,16.85
2022-11-24T11:11:43.631Z,16.85
2022-11-24T11:14:12.912Z,16.84
2022-11-24T11:16:50.692Z,16.84
2022-11-24T11:19:49.340Z,16.87
2022-11-24T11:22:28.027Z,16.83
2022-11-24T11:25:09.849Z,16.88
2022-11-24T11:27:37.026Z,16.82
2022-11-24T11:36:15.858Z,16.92
2022-11-24T11:38:43.948Z,16.92
2022-11-24T11:41:20.931Z,16.95
2022-11-24T11:43:53.889Z,16.95
2022-11-24T11:46:21.223Z,16.96
2022-11-24T11:48:48.069Z,16.97
2022-11-24T11:51:32.922Z,16.98
2022-11-24T11:54:35.311Z,16.99
2022-11-24T11:57:16.898Z,16.96
2022-11-24T11:59:51.361Z,17.00
2022-11-24T12:03:11.021Z,16.99
2022-11-24T12:05:47.506Z,17.01
2022-11-24T12:09:18.702Z,17.02
2022-11-24T12:11:46.186Z,17.02
2022-11-24T12:14:51.006Z,17.04
2022-11-24T12:17:20.259Z,17.05
2022-11-24T12:20:01.734Z,17.05
2022-11-24T12:22:42.156Z,17.06
2022-11-24T12:25:11.424Z,17.07
2022-11-24T12:28:17.665Z,17.09
2022-11-24T12:31:19.444Z,17.08
2022-11-24T12:34:18.114Z,17.09
2022-11-24T12:36:54.088Z,17.10
2022-11-24T12:39:43.941Z,17.12
2022-11-24T12:42:22.185Z,17.13
2022-11-24T12:45:12.984Z,17.14
2022-11-24T12:48:09.798Z,17.15
2022-11-24T12:50:41.425Z,17.13
2022-11-24T12:53:19.909Z,17.15
2022-11-24T12:55:47.597Z,17.17
2022-11-24T12:58:14.040Z,17.19
2022-11-24T13:01:03.342Z,17.21
2022-11-24T13:03:56.417Z,17.21
2022-11-24T13:06:49.527Z,17.19
2022-11-24T13:09:16.478Z,17.25
2022-11-24T13:11:56.741Z,17.22
2022-11-24T13:14:37.722Z,17.26
2022-11-24T13:17:48.818Z,17.24
2022-11-24T13:20:20.169Z,17.29
2022-11-24T13:22:50.725Z,17.30
2022-11-24T13:25:23.661Z,17.23
2022-11-24T13:27:53.151Z,17.28
2022-11-24T13:30:35.082Z,17.35
2022-11-24T13:33:15.820Z,17.36
2022-11-24T13:36:01.842Z,17.38
2022-11-24T13:38:46.406Z,17.39
2022-11-24T13:41:31.501Z,17.40
2022-11-24T13:44:16.375Z,17.42
2022-11-24T13:47:06.107Z,17.42
2022-11-24T13:49:39.762Z,17.44
2022-11-24T13:52:43.822Z,17.47
2022-11-24T13:55:13.151Z,17.50
2022-11-24T13:57:49.169Z,17.51
2022-11-24T14:00:34.152Z,17.49
2022-11-24T14:03:27.694Z,17.49
2022-11-24T14:05:54.722Z,17.49
2022-11-24T14:08:31.125Z,17.49
2022-11-24T14:11:00.406Z,17.53
2022-11-24T14:13:32.243Z,17.53
2022-11-24T14:16:09.363Z,17.55
2022-11-24T14:18:38.821Z,17.58
2022-11-24T14:21:20.540Z,17.61
2022-11-24T14:23:52.221Z,17.63
2022-11-24T14:26:43.314Z,17.65
2022-11-24T14:29:14.781Z,17.65
2022-11-24T14:31:42.815Z,17.67
2022-11-24T14:34:12.048Z,17.69
2022-11-24T14:36:39.549Z,17.66
2022-11-24T14:39:06.575Z,17.71
2022-11-24T14:41:33.940Z,17.74
2022-11-24T14:44:16.126Z,17.76
2022-11-24T14:46:43.451Z,17.75
2022-11-24T14:49:10.958Z,17.78
2022-11-24T14:51:42.788Z,17.78
2022-11-24T14:54:20.119Z,17.80
2022-11-24T14:57:25.238Z,17.81
2022-11-24T15:00:13.875Z,17.83
2022-11-24T15:02:54.392Z,17.82
2022-11-24T15:05:23.153Z,17.79
2022-11-24T15:08:00.064Z,17.85
2022-11-24T15:10:37.466Z,17.86
2022-11-24T15:13:15.824Z,17.86
2022-11-24T15:15:49.930Z,17.84
2022-11-24T15:18:33.432Z,17.83
2022-11-24T15:21:00.577Z,17.88
2022-11-24T15:23:32.395Z,17.87
2022-11-24T15:26:01.660Z,17.92
2022-11-24T15:28:30.284Z,17.84
2022-11-24T15:31:01.458Z,17.87
2022-11-24T15:33:29.253Z,17.87
2022-11-24T15:35:56.210Z,17.92
2022-11-24T15:38:23.842Z,17.95
2022-11-24T15:40:56.254Z,17.86
2022-11-24T15:43:30.593Z,17.96
2022-11-24T15:45:58.134Z,17.95
2022-11-24T15:48:26.030Z,17.93
2022-11-24T15:50:53.542Z,17.98
2022-11-24T15:53:38.148Z,17.98
2022-11-24T15:56:09.123Z,17.99
2022-11-24T15:58:36.141Z,17.99
2022-11-24T16:01:02.799Z,18.01
2022-11-24T16:03:47.543Z,18.01
2022-11-24T16:06:24.590Z,18.02
2022-11-24T16:08:55.413Z,18.02
2022-11-24T16:11:23.273Z,17.99
2022-11-24T16:13:53.320Z,17.94
2022-11-24T16:16:21.820Z,18.04
2022-11-24T16:18:49.117Z,18.02
2022-11-24T16:21:15.749Z,18.05
2022-11-24T16:23:42.473Z,18.04
2022-11-24T16:26:10.563Z,18.04
2022-11-24T16:28:37.621Z,18.06
2022-11-24T16:31:04.747Z,18.05
2022-11-24T16:33:31.567Z,18.07
2022-11-24T16:35:58.763Z,18.06
2022-11-24T16:38:25.515Z,18.02
2022-11-24T16:40:53.877Z,18.02
2022-11-24T16:43:20.605Z,18.08
2022-11-24T16:46:00.531Z,18.09
2022-11-24T16:48:27.574Z,18.09
2022-11-24T16:50:54.983Z,18.08
2022-11-24T16:53:22.413Z,18.09
2022-11-24T16:55:57.657Z,18.08
2022-11-24T16:58:24.346Z,18.06
2022-11-24T17:00:51.628Z,18.07
2022-11-24T17:03:18.708Z,18.06
2022-11-24T17:05:56.008Z,18.03
2022-11-24T17:08:23.509Z,18.03
2022-11-24T17:10:50.120Z,18.04
2022-11-24T17:13:17.133Z,18.03
2022-11-24T17:15:48.368Z,18.02
2022-11-24T17:18:24.334Z,18.00
2022-11-24T17:20:51.662Z,17.99
2022-11-24T17:23:19.723Z,18.00
2022-11-24T17:25:47.026Z,17.95
2022-11-24T17:28:14.025Z,17.98
2022-11-24T17:30:41.037Z,17.96
2022-11-24T17:33:07.990Z,17.92
2022-11-24T17:35:35.392Z,17.90
2022-11-24T17:38:02.448Z,17.92
2022-11-24T17:40:29.750Z,17.90
2022-11-24T17:43:01.032Z,17.90
2022-11-24T17:45:29.571Z,17.87
2022-11-24T17:47:58.542Z,17.83
2022-11-24T17:50:26.404Z,17.84
2022-11-24T17:52:54.327Z,17.85
2022-11-24T17:55:21.750Z,17.86
2022-11-24T17:57:48.311Z,17.84
2022-11-24T18:00:15.424Z,17.83
2022-11-24T18:02:42.011Z,17.77
2022-11-24T18:05:08.905Z,17.82
2022-11-24T18:07:36.694Z,17.80
2022-11-24T18:10:04.276Z,17.80
2022-11-24T18:12:33.004Z,17.79
2022-11-24T18:14:59.905Z,17.78
2022-11-24T18:17:26.448Z,17.78
2022-11-24T18:19:53.469Z,17.75
2022-11-24T18:22:36.786Z,17.77
2022-11-24T18:25:07.123Z,17.76
2022-11-24T18:27:33.665Z,17.73
2022-11-24T18:30:00.286Z,17.74
2022-11-24T18:32:26.974Z,17.69
2022-11-24T18:34:54.173Z,17.74
2022-11-24T18:37:20.703Z,17.73
2022-11-24T18:39:47.283Z,17.70
2022-11-24T18:42:14.315Z,17.69
2022-11-24T18:44:42.394Z,17.69
2022-11-24T18:47:09.510Z,17.69
2022-11-24T18:49:36.565Z,17.68
2022-11-24T18:52:03.621Z,17.64
2022-11-24T18:54:30.184Z,17.64
2022-11-24T18:57:01.768Z,17.62
2022-11-24T18:59:29.794Z,17.61
2022-11-24T19:01:57.982Z,17.64
2022-11-24T19:04:26.281Z,17.64
2022-11-24T19:06:52.817Z,17.63
2022-11-24T19:09:20.799Z,17.63
2022-11-24T19:11:47.499Z,17.61
2022-11-24T19:14:16.969Z,17.61
2022-11-24T19:16:44.715Z,17.61
2022-11-24T19:19:12.594Z,17.56
2022-11-24T19:21:40.250Z,17.59
2022-11-24T19:24:10.162Z,17.57
2022-11-24T19:26:37.622Z,17.54
2022-11-24T19:29:05.859Z,17.56
2022-11-24T19:31:33.501Z,17.57
2022-11-24T19:34:00.199Z,17.54
2022-11-24T19:36:27.169Z,17.55
2022-11-24T19:38:55.934Z,17.54
2022-11-24T19:41:28.690Z,17.54
2022-11-24T19:43:56.430Z,17.53
2022-11-24T19:46:28.053Z,17.52
2022-11-24T19:48:57.077Z,17.49
2022-11-24T19:51:31.074Z,17.51
2022-11-24T19:53:58.425Z,17.50
2022-11-24T19:56:27.547Z,17.43
2022-11-24T19:58:55.341Z,17.49
2022-11-24T20:01:25.082Z,17.47
2022-11-24T20:04:07.601Z,17.43
2022-11-24T20:06:40.480Z,17.45
2022-11-24T20:09:11.187Z,17.44
2022-11-24T20:11:38.971Z,17.43
2022-11-24T20:14:07.446Z,17.43
2022-11-24T20:16:35.088Z,17.41
2022-11-24T20:19:07.486Z,17.42
2022-11-24T20:21:37.057Z,17.39
2022-11-24T20:24:09.372Z,17.41
2022-11-24T20:26:38.812Z,17.39
2022-11-24T20:29:06.708Z,17.33
2022-11-24T20:31:39.264Z,17.39
2022-11-24T20:34:07.246Z,17.39
2022-11-24T20:36:36.662Z,17.37
2022-11-24T20:39:07.061Z,17.38
2022-11-24T20:41:35.535Z,17.36
2022-11-24T20:44:05.064Z,17.35
2022-11-24T20:46:34.876Z,17.36
2022-11-24T20:49:03.407Z,17.34
2022-11-24T20:51:33.038Z,17.35
2022-11-24T20:54:02.383Z,17.34
2022-11-24T20:56:31.341Z,17.35
2022-11-24T20:58:58.795Z,17.33
2022-11-24T21:01:28.715Z,17.33
2022-11-24T21:03:57.981Z,17.33
2022-11-24T21:06:26.049Z,17.32
2022-11-24T21:08:52.720Z,17.31
2022-11-24T21:11:20.281Z,17.30
2022-11-24T21:13:48.874Z,17.26
2022-11-24T21:16:24.406Z,17.30
2022-11-24T21:18:55.042Z,17.29
2022-11-24T21:21:23.581Z,17.24
2022-11-24T21:23:50.850Z,17.21
2022-11-24T21:26:19.130Z,17.27
2022-11-24T21:28:47.489Z,17.27
2022-11-24T21:31:21.176Z,17.25
2022-11-24T21:33:49.821Z,17.26
2022-11-24T21:36:19.829Z,17.24
2022-11-24T21:38:54.583Z,17.23
2022-11-24T21:41:22.649Z,17.25
2022-11-24T21:43:50.139Z,17.22
2022-11-24T21:46:17.106Z,17.21
2022-11-24T21:48:43.882Z,17.25
2022-11-24T21:51:16.640Z,17.25
2022-11-24T21:53:44.102Z,17.22
2022-11-24T21:56:13.729Z,17.24
2022-11-24T21:58:57.300Z,17.23
2022-11-24T22:01:27.239Z,17.17
2022-11-24T22:03:54.920Z,17.21
2022-11-24T22:06:21.572Z,17.21
2022-11-24T22:08:49.539Z,17.08
2022-11-24T22:11:21.451Z,17.18
2022-11-24T22:13:49.054Z,17.19
2022-11-24T22:16:18.893Z,17.20
2022-11-24T22:18:46.381Z,17.17
2022-11-24T22:21:15.852Z,17.19
2022-11-24T22:23:42.666Z,17.15
2022-11-24T22:26:18.122Z,17.19
2022-11-24T22:28:45.548Z,17.17
2022-11-24T22:31:18.222Z,17.17
2022-11-24T22:33:45.501Z,17.18
2022-11-24T22:36:14.144Z,17.16
2022-11-24T22:38:41.396Z,17.18
2022-11-24T22:41:13.657Z,17.14
2022-11-24T22:43:41.884Z,17.12
2022-11-24T22:46:11.370Z,17.15
2022-11-24T22:48:38.870Z,17.15
2022-11-24T22:51:13.384Z,17.01
2022-11-24T22:53:41.453Z,17.12
2022-11-24T22:56:10.548Z,17.08
2022-11-24T22:58:38.763Z,17.10
2022-11-24T23:01:06.768Z,17.11
2022-11-24T23:03:35.102Z,17.11
2022-11-24T23:06:03.836Z,17.10
2022-11-24T23:08:33.215Z,17.08
2022-11-24T23:11:05.145Z,17.07
2022-11-24T23:13:31.710Z,17.09
2022-11-24T23:16:09.031Z,17.10
2022-11-24T23:18:36.310Z,17.09
2022-11-24T23:21:12.743Z,17.10
2022-11-24T23:23:39.817Z,17.06
2022-11-24T23:26:09.392Z,17.04
2022-11-24T23:28:36.420Z,17.07
2022-11-24T23:31:07.003Z,17.07
2022-11-24T23:33:33.572Z,17.03
2022-11-24T23:36:02.139Z,17.05
2022-11-24T23:38:30.280Z,17.05
2022-11-24T23:40:57.493Z,17.04
2022-11-24T23:43:24.160Z,17.04
2022-11-24T23:45:50.715Z,17.04
2022-11-24T23:48:18.027Z,17.00
2022-11-24T23:50:44.759Z,17.04
2022-11-24T23:53:11.733Z,17.00
2022-11-24T23:55:38.299Z,17.04
2022-11-24T23:58:05.598Z,17.03
